createdAt,value
2022-11-09T00:05:34.743Z,75281.03
2022-11-09T00:15:39.465Z,75281.03
2022-11-09T00:25:41.474Z,75287.09
2022-11-09T00:35:43.691Z,75285.06
2022-11-09T00:45:47.545Z,75285.06
2022-11-09T00:56:02.404Z,75287.09
2022-11-09T01:06:06.585Z,75295.19
2022-11-09T01:16:19.785Z,75295.19
2022-11-09T01:26:25.493Z,75301.25
2022-11-09T01:36:30.802Z,75297.22
2022-11-09T01:46:50.909Z,75303.28
2022-11-09T01:56:56.769Z,75317.44
2022-11-09T02:07:00.929Z,75313.41
2022-11-09T02:17:05.979Z,75329.59
2022-11-09T02:27:16.404Z,75339.69
2022-11-09T02:37:40.541Z,75339.69
2022-11-09T02:47:46.082Z,75339.69
2022-11-09T02:57:51.679Z,75353.88
2022-11-09T03:08:02.696Z,75370.06
2022-11-09T03:18:11.895Z,75374.09
2022-11-09T03:28:20.047Z,75382.19
2022-11-09T03:38:24.605Z,75388.28
2022-11-09T03:48:34.402Z,75382.19
2022-11-09T03:58:38.669Z,75372.09
2022-11-09T04:09:01.593Z,75349.81
2022-11-09T04:19:03.698Z,75357.91
2022-11-09T04:29:07.266Z,75372.09
2022-11-09T04:39:16.557Z,75382.19
2022-11-09T04:49:25.665Z,75394.34
2022-11-09T04:59:32.880Z,75400.41
2022-11-09T05:09:35.820Z,75406.47
2022-11-09T05:19:39.144Z,75414.56
2022-11-09T05:29:44.842Z,75414.56
2022-11-09T05:39:51.907Z,75418.63
2022-11-09T05:49:54.261Z,75418.63
2022-11-09T06:00:00.090Z,75418.63
2022-11-09T06:10:07.448Z,75418.63
2022-11-09T06:20:15.939Z,75402.44
2022-11-09T06:30:17.989Z,75400.41
2022-11-09T06:40:24.005Z,75390.28
2022-11-09T06:50:31.546Z,75390.28
2022-11-09T07:00:41.019Z,75345.78
2022-11-09T07:10:47.110Z,75307.31
2022-11-09T07:20:51.668Z,75297.22
2022-11-09T07:30:53.887Z,75301.25
2022-11-09T07:41:00.547Z,75289.13
2022-11-09T07:51:04.434Z,75248.66
2022-11-09T08:01:10.432Z,75240.56
2022-11-09T08:11:12.641Z,75196.03
2022-11-09T08:21:17.087Z,75155.56
2022-11-09T08:31:21.827Z,75135.31
2022-11-09T08:41:26.951Z,75135.31
2022-11-09T08:51:29.156Z,75094.84
2022-11-09T09:01:31.280Z,75032.13
2022-11-09T09:11:33.376Z,74993.69
2022-11-09T09:21:35.375Z,74977.50
2022-11-09T09:31:37.573Z,74973.44
2022-11-09T09:41:47.517Z,74937.03
2022-11-09T09:51:55.470Z,74916.78
2022-11-09T10:01:58.690Z,74904.66
2022-11-09T10:12:05.670Z,74888.47
2022-11-09T10:22:17.592Z,74872.28
2022-11-09T10:32:24.775Z,74880.38
2022-11-09T10:42:32.539Z,74868.22
2022-11-09T10:53:18.617Z,74839.91
2022-11-09T11:03:42.704Z,74827.75
2022-11-09T11:14:22.696Z,74799.44
2022-11-09T11:24:52.994Z,74789.31
2022-11-09T11:35:17.075Z,74787.28
2022-11-09T11:45:50.010Z,74763.03
2022-11-09T11:56:39.184Z,74763.03
2022-11-09T12:07:12.239Z,74752.91
2022-11-09T12:17:55.204Z,74726.59
2022-11-09T12:28:40.453Z,74710.41
2022-11-09T12:39:07.542Z,74690.19
2022-11-09T12:49:42.040Z,74674.00
2022-11-09T13:00:03.342Z,74680.06
2022-11-09T13:10:35.711Z,74692.19
2022-11-09T13:20:57.611Z,74686.13
2022-11-09T13:31:57.121Z,74678.03
2022-11-09T13:42:33.809Z,74696.25
2022-11-09T13:52:58.101Z,74714.47
2022-11-09T14:03:23.148Z,74714.47
2022-11-09T14:14:02.205Z,74728.63
2022-11-09T14:24:35.180Z,74750.88
2022-11-09T14:35:22.493Z,74754.94
2022-11-09T14:45:53.468Z,74773.13
2022-11-09T14:56:23.173Z,74781.22
2022-11-09T15:07:18.028Z,74793.38
2022-11-09T15:17:40.373Z,74793.38
2022-11-09T15:28:08.960Z,74795.38
2022-11-09T15:38:42.774Z,74799.44
2022-11-09T15:49:15.737Z,74819.66
2022-11-09T15:59:36.583Z,74837.88
2022-11-09T16:09:59.540Z,74837.88
2022-11-09T16:20:26.557Z,74841.94
2022-11-09T16:30:47.597Z,74856.09
2022-11-09T16:41:11.951Z,74866.22
2022-11-09T16:51:40.360Z,74888.47
2022-11-09T17:02:01.554Z,74904.66
2022-11-09T17:12:22.449Z,74904.66
2022-11-09T17:22:46.240Z,74937.03
2022-11-09T17:33:09.593Z,74935.00
2022-11-09T17:43:37.682Z,74957.25
2022-11-09T17:53:58.450Z,74959.28
2022-11-09T18:04:19.350Z,74965.34
2022-11-09T18:14:41.883Z,74977.50
2022-11-09T18:25:02.399Z,74993.69
2022-11-09T18:35:23.599Z,75007.84
2022-11-09T18:45:56.561Z,75011.91
2022-11-09T18:56:26.814Z,75026.06
2022-11-09T19:06:48.839Z,75026.06
2022-11-09T19:17:15.730Z,75042.25
2022-11-09T19:27:37.689Z,75054.38
2022-11-09T19:38:03.680Z,75088.78
2022-11-09T19:48:29.276Z,75098.91
2022-11-09T19:58:51.724Z,75098.91
2022-11-09T20:09:13.237Z,75107.00
2022-11-09T20:19:33.771Z,75111.03
2022-11-09T20:29:55.886Z,75135.31
2022-11-09T20:40:16.929Z,75123.19
2022-11-09T20:50:38.223Z,75163.66
2022-11-09T21:01:12.271Z,75171.75
2022-11-09T21:11:56.350Z,75189.97
2022-11-09T21:22:24.618Z,75194.00
2022-11-09T21:32:45.383Z,75094.84
2022-11-09T21:43:14.172Z,75159.59
2022-11-09T21:53:41.203Z,75208.16
2022-11-09T22:04:04.352Z,75187.94
2022-11-09T22:14:44.106Z,75224.34
2022-11-09T22:25:13.843Z,75248.66
2022-11-09T22:35:34.792Z,75252.69
2022-11-09T22:46:06.299Z,75264.84
2022-11-09T22:56:31.988Z,75272.94
2022-11-09T23:06:52.884Z,75281.03
2022-11-09T23:17:39.028Z,75279.00
2022-11-09T23:28:03.366Z,75281.03
2022-11-09T23:38:32.032Z,75230.44
2022-11-09T23:48:53.262Z,75283.03
2022-11-09T23:59:14.235Z,75293.16
